Terminal Aerodrome Forecast
Issued by NWS

Current Version | Previous Version | Text Only | Print | Product List | Glossary On
Versions: 1 2 3 4 5 6 7 8 9 10 11 12 13 14 15 16 17 18 19 20 21 22 23 24
544
FTUS45 KPSR 300255 AAA
TAFPHX
TAF AMD
KPHX 300255Z 3003/3024 29008KT P6SM OVC250
     FM300800 10006KT P6SM OVC250
     FM301600 13012KT P6SM OVC250
     FM302200 25007KT P6SM BKN250=

USA.gov is the U.S. government's official web portal to all federal, state and local government web resources and services.